Time;durP1;ratioP1;P1;durP2;ratioP2;P2;SDS_P1;SDS_P2;PMS_P1;PMS_P2;Temp;Humidity;BMP_temperature;BMP_pressure;BME280_temperature;BME280_humidity;BME280_pressure;Samples;Min_cycle;Max_cycle;Signal;HPM_P1;HPM_P2
2022/02/13 00:01:45;;;;;;;1.63;0.90;;;-5.40;96.20;;;;;;21040317;28;20070;-50
2022/02/13 00:11:47;;;;;;;2.08;1.02;;;-5.20;95.50;;;;;;21054883;28;20142;-49
2022/02/13 00:21:51;;;;;;;1.65;0.93;;;-5.20;95.90;;;;;;21103615;28;20124;-52
2022/02/13 00:31:54;;;;;;;2.05;0.93;;;-5.20;95.90;;;;;;21086590;28;20040;-47
2022/02/13 00:41:56;;;;;;;2.03;0.93;;;-5.20;96.70;;;;;;21086775;28;20096;-49
2022/02/13 00:51:59;;;;;;;1.25;0.60;;;-5.40;96.50;;;;;;21102382;28;20031;-49
2022/02/13 01:02:03;;;;;;;2.17;0.70;;;-5.40;94.00;;;;;;21076817;28;20036;-51
2022/02/13 01:12:06;;;;;;;1.52;0.70;;;-5.10;94.70;;;;;;21099499;28;20081;-49
2022/02/13 01:22:10;;;;;;;2.03;0.65;;;-5.30;94.50;;;;;;21049341;28;20052;-50
2022/02/13 01:32:13;;;;;;;1.23;0.60;;;-5.30;94.30;;;;;;21048741;28;20036;-51
2022/02/13 01:42:16;;;;;;;2.05;0.82;;;-5.30;93.80;;;;;;21065852;28;20044;-49
2022/02/13 01:52:18;;;;;;;1.17;0.68;;;-5.40;93.00;;;;;;21048278;28;20044;-47
2022/02/13 02:02:20;;;;;;;2.25;0.80;;;-4.90;91.60;;;;;;21047882;28;20036;-48
2022/02/13 02:12:23;;;;;;;0.88;0.50;;;-5.00;91.80;;;;;;21030685;28;20102;-47
2022/02/13 02:22:25;;;;;;;1.20;0.43;;;-5.40;92.50;;;;;;21046764;28;20044;-49
2022/02/13 02:32:28;;;;;;;2.85;0.50;;;-5.60;92.20;;;;;;21047223;28;20066;-49
2022/02/13 02:42:30;;;;;;;0.93;0.32;;;-5.70;91.60;;;;;;21046632;28;20036;-48
2022/02/13 02:52:33;;;;;;;1.52;0.40;;;-5.70;90.70;;;;;;22232146;22;20052;-47
2022/02/13 03:02:35;;;;;;;1.15;0.40;;;-5.80;91.30;;;;;;21077855;28;20043;-48
2022/02/13 03:12:38;;;;;;;0.63;0.30;;;-5.90;91.20;;;;;;21077309;28;20093;-48
2022/02/13 03:22:40;;;;;;;1.55;0.55;;;-5.90;89.90;;;;;;21060047;28;20115;-50
2022/02/13 03:32:43;;;;;;;1.20;0.50;;;-5.90;90.60;;;;;;21075610;28;20032;-48
2022/02/13 03:42:46;;;;;;;1.38;0.50;;;-6.10;91.40;;;;;;21075247;28;20093;-48
2022/02/13 03:52:49;;;;;;;0.65;0.30;;;-6.20;90.30;;;;;;21074024;28;20040;-48
2022/02/13 04:02:55;;;;;;;0.90;0.38;;;-6.00;90.20;;;;;;21055831;28;20036;-50
2022/02/13 04:12:58;;;;;;;1.90;0.60;;;-5.90;88.70;;;;;;21072751;28;20044;-50
2022/02/13 04:23:00;;;;;;;1.60;0.50;;;-6.20;91.00;;;;;;21071322;28;20044;-48
2022/02/13 04:33:02;;;;;;;1.40;0.60;;;-6.30;92.40;;;;;;21046366;28;20036;-49
2022/02/13 04:43:06;;;;;;;0.83;0.47;;;-6.20;92.50;;;;;;21053572;28;20040;-49
2022/02/13 04:53:08;;;;;;;0.77;0.40;;;-6.30;91.40;;;;;;21071098;28;20052;-50
2022/02/13 05:03:11;;;;;;;2.43;0.60;;;-6.30;90.90;;;;;;21068386;28;20482;-48
2022/02/13 05:13:14;;;;;;;1.67;0.47;;;-6.30;91.30;;;;;;21067892;28;20032;-47
2022/02/13 05:23:16;;;;;;;3.43;0.67;;;-6.50;91.50;;;;;;21050704;28;20032;-50
2022/02/13 05:33:18;;;;;;;1.80;0.83;;;-6.50;92.10;;;;;;21067808;28;20040;-50
2022/02/13 05:43:21;;;;;;;0.93;0.60;;;-6.30;91.60;;;;;;21066211;28;20036;-49
2022/02/13 05:53:23;;;;;;;2.93;1.00;;;-6.50;92.90;;;;;;21064922;28;20040;-48
2022/02/13 06:03:26;;;;;;;1.03;0.67;;;-6.50;93.30;;;;;;21064896;28;20089;-49
2022/02/13 06:13:28;;;;;;;2.33;0.80;;;-6.40;93.00;;;;;;21064419;28;20479;-48
2022/02/13 06:23:31;;;;;;;2.53;0.80;;;-6.30;93.60;;;;;;21064769;28;20040;-49
2022/02/13 06:33:34;;;;;;;1.97;0.60;;;-6.30;93.10;;;;;;21077174;28;20062;-48
2022/02/13 06:43:37;;;;;;;0.93;0.57;;;-6.20;92.60;;;;;;21080160;28;20036;-49
2022/02/13 06:53:39;;;;;;;1.35;0.50;;;-6.10;93.00;;;;;;21078995;28;20048;-49
2022/02/13 07:03:42;;;;;;;1.90;0.85;;;-6.00;93.00;;;;;;21079248;28;20035;-49
2022/02/13 07:13:44;;;;;;;1.85;0.63;;;-6.00;93.00;;;;;;21077545;28;20104;-48
2022/02/13 07:23:46;;;;;;;1.77;0.60;;;-5.80;93.20;;;;;;21076511;28;20074;-48
2022/02/13 07:33:49;;;;;;;1.17;0.60;;;-5.50;93.10;;;;;;21075533;28;20105;-47
2022/02/13 07:43:53;;;;;;;1.85;0.90;;;-5.20;93.50;;;;;;21073820;28;20040;-47
2022/02/13 07:53:55;;;;;;;2.10;1.00;;;-4.50;93.60;;;;;;21074036;28;20105;-47
2022/02/13 08:03:57;;;;;;;2.22;1.20;;;-3.40;93.20;;;;;;21072854;28;20028;-48
2022/02/13 08:14:00;;;;;;;3.13;1.40;;;-2.30;93.20;;;;;;21072049;28;20101;-49
2022/02/13 08:24:03;;;;;;;4.00;1.30;;;-1.00;91.90;;;;;;21070761;28;20081;-48
2022/02/13 08:34:05;;;;;;;2.47;1.05;;;0.20;89.00;;;;;;21071118;28;20642;-49
2022/02/13 08:44:09;;;;;;;2.05;1.15;;;0.80;86.40;;;;;;21070016;28;20035;-47
2022/02/13 08:54:11;;;;;;;1.60;0.90;;;1.50;82.70;;;;;;21068098;28;20097;-49
2022/02/13 09:04:14;;;;;;;4.88;1.20;;;2.00;79.90;;;;;;21069107;28;20470;-49
2022/02/13 09:14:17;;;;;;;2.00;1.13;;;2.50;79.10;;;;;;21066978;28;20044;-47
2022/02/13 09:24:20;;;;;;;2.45;0.90;;;3.00;77.00;;;;;;21066703;28;20036;-52
2022/02/13 09:34:27;;;;;;;1.77;1.02;;;3.30;75.40;;;;;;21065656;28;20085;-48
2022/02/13 09:44:30;;;;;;;1.88;1.00;;;3.60;73.80;;;;;;21065361;28;20044;-50
2022/02/13 09:54:33;;;;;;;4.15;1.33;;;3.90;71.40;;;;;;21064682;28;20056;-49
2022/02/13 10:04:42;;;;;;;2.65;1.10;;;4.00;70.80;;;;;;21070868;28;20036;-50
2022/02/13 10:14:45;;;;;;;2.35;1.10;;;4.20;70.30;;;;;;21081652;28;20505;-49
2022/02/13 10:24:47;;;;;;;1.80;1.10;;;4.20;68.90;;;;;;21081131;28;20448;-52
2022/02/13 10:35:10;;;;;;;2.83;1.75;;;4.60;68.10;;;;;;21080453;28;20040;-48
2022/02/13 10:45:19;;;;;;;3.28;1.90;;;4.80;69.60;;;;;;21079291;28;20036;-50
2022/02/13 10:55:22;;;;;;;6.50;1.90;;;4.50;72.90;;;;;;21079975;28;20044;-49
2022/02/13 11:05:28;;;;;;;4.68;2.30;;;4.80;72.90;;;;;;21077801;28;20043;-49
2022/02/13 11:15:32;;;;;;;5.45;2.10;;;5.00;71.90;;;;;;21077187;28;20390;-51
2022/02/13 11:25:56;;;;;;;4.43;2.10;;;5.00;71.10;;;;;;21075834;28;20061;-51
2022/02/13 11:36:05;;;;;;;3.80;1.98;;;5.50;70.60;;;;;;21058981;28;20043;-50
2022/02/13 11:46:08;;;;;;;3.03;2.20;;;5.20;70.90;;;;;;21074294;28;20044;-54
2022/02/13 11:56:28;;;;;;;5.55;2.08;;;5.20;71.60;;;;;;21073415;28;20040;-51
2022/02/13 12:06:32;;;;;;;3.87;2.33;;;5.50;71.10;;;;;;21055919;28;20035;-49
2022/02/13 12:16:34;;;;;;;4.60;2.10;;;5.70;72.00;;;;;;21072118;28;20482;-49
2022/02/13 12:26:38;;;;;;;3.85;2.33;;;5.90;71.70;;;;;;21070526;28;20062;-49
2022/02/13 12:36:54;;;;;;;5.20;2.88;;;5.90;71.40;;;;;;21053725;28;20032;-49
2022/02/13 12:46:56;;;;;;;5.05;2.58;;;6.00;71.10;;;;;;21069461;28;20078;-50
2022/02/13 12:57:19;;;;;;;4.60;2.80;;;6.10;71.70;;;;;;21069556;28;20044;-49
2022/02/13 13:07:24;;;;;;;3.90;2.42;;;5.80;72.40;;;;;;21068644;28;20032;-50
2022/02/13 13:17:39;;;;;;;6.32;3.22;;;5.70;74.20;;;;;;21067244;28;20054;-49
2022/02/13 13:27:41;;;;;;;4.60;2.85;;;5.60;75.10;;;;;;21066358;28;20040;-49
2022/02/13 13:37:52;;;;;;;5.05;3.03;;;5.40;76.40;;;;;;21065378;28;20108;-48
2022/02/13 13:47:55;;;;;;;5.60;3.03;;;5.20;76.90;;;;;;21065178;28;20044;-49
2022/02/13 13:57:58;;;;;;;6.75;3.25;;;4.80;77.60;;;;;;21047982;28;20066;-51
2022/02/13 14:08:03;;;;;;;4.40;2.97;;;4.10;78.70;;;;;;21064513;28;20039;-49
2022/02/13 14:18:05;;;;;;;6.05;3.20;;;3.10;80.80;;;;;;21063511;28;20054;-52
2022/02/13 14:28:09;;;;;;;5.65;3.25;;;2.60;83.00;;;;;;21064028;28;20540;-50
2022/02/13 14:38:11;;;;;;;5.75;3.15;;;2.30;83.90;;;;;;21050742;28;20036;-49
2022/02/13 14:48:15;;;;;;;5.20;2.72;;;2.00;84.80;;;;;;21053118;28;20044;-49
2022/02/13 14:58:19;;;;;;;6.40;3.17;;;1.80;85.80;;;;;;21080282;28;20101;-48
2022/02/13 15:08:22;;;;;;;6.25;3.70;;;1.40;87.20;;;;;;21078470;28;20498;-50
2022/02/13 15:18:24;;;;;;;6.32;3.53;;;0.90;88.50;;;;;;21076472;28;20040;-47
2022/02/13 15:28:27;;;;;;;7.32;3.05;;;0.70;89.30;;;;;;21076245;28;20173;-49
2022/02/13 15:38:29;;;;;;;7.40;3.67;;;0.30;90.20;;;;;;21075284;28;20024;-49
2022/02/13 15:48:32;;;;;;;6.78;3.55;;;0.00;90.50;;;;;;21074422;28;20093;-49
2022/02/13 15:58:35;;;;;;;6.03;3.45;;;-0.80;90.80;;;;;;21073490;28;20073;-48
2022/02/13 16:08:37;;;;;;;6.30;3.60;;;-1.50;91.80;;;;;;21072805;28;20113;-48
2022/02/13 16:18:40;;;;;;;9.98;3.85;;;-2.10;93.00;;;;;;21071658;28;20432;-50
2022/02/13 16:28:42;;;;;;;7.35;3.70;;;-2.50;93.70;;;;;;21070960;28;20065;-51
2022/02/13 16:38:45;;;;;;;20.63;4.28;;;-2.80;94.60;;;;;;21060831;28;20036;-49
2022/02/13 16:48:48;;;;;;;6.18;3.35;;;-2.90;95.10;;;;;;21062240;28;20133;-48
2022/02/13 16:58:53;;;;;;;7.57;3.05;;;-3.10;96.00;;;;;;21058687;28;20048;-50
2022/02/13 17:08:58;;;;;;;7.32;2.90;;;-3.40;96.00;;;;;;21069747;28;20125;-48
2022/02/13 17:19:02;;;;;;;6.88;3.58;;;-3.50;96.70;;;;;;21067295;28;20449;-48
2022/02/13 17:29:06;;;;;;;6.18;2.95;;;-3.50;97.40;;;;;;21050189;28;20455;-48
2022/02/13 17:39:09;;;;;;;6.43;3.05;;;-3.40;96.90;;;;;;21049442;28;20329;-49
2022/02/13 17:49:12;;;;;;;6.82;3.85;;;-3.50;97.50;;;;;;21065554;28;20085;-48
2022/02/13 17:59:17;;;;;;;5.25;3.13;;;-3.60;97.90;;;;;;21065254;28;20062;-49
2022/02/13 18:09:19;;;;;;;7.43;3.50;;;-3.70;98.20;;;;;;21063724;28;20563;-49
2022/02/13 18:19:22;;;;;;;6.32;3.20;;;-3.80;98.70;;;;;;21064073;28;20040;-49
2022/02/13 18:29:25;;;;;;;7.88;3.45;;;-3.90;98.60;;;;;;21076933;28;20040;-49
2022/02/13 18:39:28;;;;;;;9.38;3.15;;;-3.80;98.40;;;;;;21080362;28;20036;-48
2022/02/13 18:49:34;;;;;;;6.47;3.30;;;-3.90;98.40;;;;;;21079001;28;20082;-49
2022/02/13 18:59:38;;;;;;;11.27;3.30;;;-4.00;98.30;;;;;;21078385;28;20044;-48
2022/02/13 19:09:40;;;;;;;5.63;3.20;;;-4.20;98.70;;;;;;21078076;28;20040;-52
2022/02/13 19:19:43;;;;;;;6.20;3.17;;;-4.40;98.50;;;;;;21077769;28;20044;-48
2022/02/13 19:29:47;;;;;;;6.63;3.13;;;-4.40;99.00;;;;;;21076211;28;20065;-48
2022/02/13 19:39:50;;;;;;;7.47;3.70;;;-4.40;99.70;;;;;;21075261;28;20040;-48
2022/02/13 19:49:53;;;;;;;9.48;3.53;;;-4.60;99.90;;;;;;21073519;28;20109;-48
2022/02/13 20:00:00;;;;;;;5.75;3.33;;;-4.70;99.90;;;;;;21074071;28;20028;-52
2022/02/13 20:10:05;;;;;;;7.63;3.28;;;-4.80;99.90;;;;;;21074131;28;20081;-48
2022/02/13 20:20:09;;;;;;;8.60;4.38;;;-4.70;99.90;;;;;;21072561;28;20433;-48
2022/02/13 20:30:12;;;;;;;9.25;4.32;;;-4.70;99.90;;;;;;21071284;28;20033;-48
2022/02/13 20:40:15;;;;;;;8.43;4.15;;;-4.70;99.90;;;;;;21070460;28;20028;-49
2022/02/13 20:50:20;;;;;;;6.90;3.92;;;-4.80;99.90;;;;;;21069073;28;20453;-48
2022/02/13 21:00:25;;;;;;;9.00;5.15;;;-4.90;99.90;;;;;;21068995;28;20032;-49
2022/02/13 21:10:29;;;;;;;10.48;5.55;;;-4.80;99.90;;;;;;21068235;28;20031;-49
2022/02/13 21:20:31;;;;;;;11.10;5.68;;;-4.90;99.90;;;;;;21068230;28;20040;-49
2022/02/13 21:30:36;;;;;;;10.05;5.30;;;-5.00;99.90;;;;;;21067420;28;20036;-48
2022/02/13 21:40:38;;;;;;;9.73;4.75;;;-5.20;99.90;;;;;;21066682;28;20047;-48
2022/02/13 21:50:42;;;;;;;11.07;6.30;;;-5.30;99.90;;;;;;21066080;28;20109;-48
2022/02/13 22:00:45;;;;;;;10.93;5.90;;;-5.00;99.90;;;;;;21065589;28;20032;-48
2022/02/13 22:10:48;;;;;;;11.45;5.25;;;-4.90;99.90;;;;;;21065799;28;20040;-48
2022/02/13 22:20:50;;;;;;;10.43;5.50;;;-4.90;99.90;;;;;;21064132;28;20036;-47
2022/02/13 22:30:53;;;;;;;10.93;6.05;;;-4.80;99.90;;;;;;21063899;28;20109;-48
2022/02/13 22:40:56;;;;;;;11.90;5.50;;;-4.80;99.90;;;;;;21063555;28;20380;-49
2022/02/13 22:50:58;;;;;;;10.68;5.28;;;-4.70;99.90;;;;;;21063189;28;20503;-49
2022/02/13 23:01:01;;;;;;;16.23;5.85;;;-4.60;99.90;;;;;;21062842;28;20101;-50
2022/02/13 23:21:28;;;;;;;10.40;5.05;;;-4.10;99.90;;;;;;21077363;28;20402;-48
2022/02/13 23:31:31;;;;;;;6.03;2.78;;;-3.60;99.90;;;;;;21076715;28;20468;-49
2022/02/13 23:41:33;;;;;;;10.05;5.00;;;-2.70;99.90;;;;;;21058586;28;20442;-50
2022/02/13 23:51:38;;;;;;;10.13;4.75;;;-1.70;99.90;;;;;;21074382;28;20044;-48
